sensor_id;sensor_type;location;lat;lon;timestamp;P1;durP1;ratioP1;P2;durP2;ratioP2
19006;SDS011;9636;47.382;8.480;2022-12-18T00:02:10;17.73;;;10.73;;
19006;SDS011;9636;47.382;8.480;2022-12-18T00:04:38;17.03;;;10.30;;
19006;SDS011;9636;47.382;8.480;2022-12-18T00:07:06;18.33;;;10.87;;
19006;SDS011;9636;47.382;8.480;2022-12-18T00:09:33;17.20;;;10.63;;
19006;SDS011;9636;47.382;8.480;2022-12-18T00:12:00;21.83;;;10.73;;
19006;SDS011;9636;47.382;8.480;2022-12-18T00:14:27;17.83;;;11.17;;
19006;SDS011;9636;47.382;8.480;2022-12-18T00:16:54;15.77;;;10.37;;
19006;SDS011;9636;47.382;8.480;2022-12-18T00:19:23;18.23;;;10.80;;
19006;SDS011;9636;47.382;8.480;2022-12-18T00:21:50;16.70;;;10.30;;
19006;SDS011;9636;47.382;8.480;2022-12-18T00:24:19;16.40;;;10.67;;
19006;SDS011;9636;47.382;8.480;2022-12-18T00:26:46;16.73;;;10.50;;
19006;SDS011;9636;47.382;8.480;2022-12-18T00:29:13;17.33;;;10.63;;
19006;SDS011;9636;47.382;8.480;2022-12-18T00:31:41;18.30;;;11.30;;
19006;SDS011;9636;47.382;8.480;2022-12-18T00:34:09;18.87;;;10.83;;
19006;SDS011;9636;47.382;8.480;2022-12-18T00:36:36;19.23;;;10.63;;
19006;SDS011;9636;47.382;8.480;2022-12-18T00:39:04;15.97;;;10.13;;
19006;SDS011;9636;47.382;8.480;2022-12-18T00:41:33;17.97;;;10.73;;
19006;SDS011;9636;47.382;8.480;2022-12-18T00:44:17;17.60;;;10.37;;
19006;SDS011;9636;47.382;8.480;2022-12-18T00:46:45;15.90;;;9.70;;
19006;SDS011;9636;47.382;8.480;2022-12-18T00:49:13;17.63;;;10.93;;
19006;SDS011;9636;47.382;8.480;2022-12-18T00:51:40;16.73;;;10.23;;
19006;SDS011;9636;47.382;8.480;2022-12-18T00:54:07;16.27;;;10.40;;
19006;SDS011;9636;47.382;8.480;2022-12-18T00:56:36;14.57;;;9.77;;
19006;SDS011;9636;47.382;8.480;2022-12-18T00:59:04;17.73;;;10.17;;
19006;SDS011;9636;47.382;8.480;2022-12-18T01:01:31;15.67;;;10.23;;
19006;SDS011;9636;47.382;8.480;2022-12-18T01:03:59;16.93;;;10.67;;
19006;SDS011;9636;47.382;8.480;2022-12-18T01:06:27;19.23;;;10.50;;
19006;SDS011;9636;47.382;8.480;2022-12-18T01:08:54;15.90;;;10.40;;
19006;SDS011;9636;47.382;8.480;2022-12-18T01:11:22;17.83;;;10.77;;
19006;SDS011;9636;47.382;8.480;2022-12-18T01:13:51;16.37;;;10.60;;
19006;SDS011;9636;47.382;8.480;2022-12-18T01:16:18;17.20;;;10.50;;
19006;SDS011;9636;47.382;8.480;2022-12-18T01:18:46;17.27;;;10.80;;
19006;SDS011;9636;47.382;8.480;2022-12-18T01:21:13;15.73;;;10.20;;
19006;SDS011;9636;47.382;8.480;2022-12-18T01:23:41;16.77;;;10.40;;
19006;SDS011;9636;47.382;8.480;2022-12-18T01:26:09;15.63;;;9.93;;
19006;SDS011;9636;47.382;8.480;2022-12-18T01:28:36;17.20;;;11.00;;
19006;SDS011;9636;47.382;8.480;2022-12-18T01:31:15;16.73;;;10.30;;
19006;SDS011;9636;47.382;8.480;2022-12-18T01:33:42;14.93;;;9.57;;
19006;SDS011;9636;47.382;8.480;2022-12-18T01:36:14;18.07;;;10.63;;
19006;SDS011;9636;47.382;8.480;2022-12-18T01:38:41;14.50;;;9.87;;
19006;SDS011;9636;47.382;8.480;2022-12-18T01:41:08;16.53;;;11.00;;
19006;SDS011;9636;47.382;8.480;2022-12-18T01:43:42;15.90;;;10.43;;
19006;SDS011;9636;47.382;8.480;2022-12-18T01:46:10;15.27;;;9.30;;
19006;SDS011;9636;47.382;8.480;2022-12-18T01:48:38;16.50;;;10.97;;
19006;SDS011;9636;47.382;8.480;2022-12-18T01:51:06;17.10;;;9.70;;
19006;SDS011;9636;47.382;8.480;2022-12-18T01:53:34;15.27;;;9.97;;
19006;SDS011;9636;47.382;8.480;2022-12-18T01:56:02;16.10;;;10.57;;
19006;SDS011;9636;47.382;8.480;2022-12-18T01:58:32;14.63;;;9.23;;
19006;SDS011;9636;47.382;8.480;2022-12-18T02:01:02;14.50;;;9.90;;
19006;SDS011;9636;47.382;8.480;2022-12-18T02:03:29;13.47;;;9.40;;
19006;SDS011;9636;47.382;8.480;2022-12-18T02:05:59;14.97;;;10.03;;
19006;SDS011;9636;47.382;8.480;2022-12-18T02:08:29;14.80;;;10.07;;
19006;SDS011;9636;47.382;8.480;2022-12-18T02:11:02;16.33;;;10.53;;
19006;SDS011;9636;47.382;8.480;2022-12-18T02:13:32;13.37;;;9.43;;
19006;SDS011;9636;47.382;8.480;2022-12-18T02:16:04;14.40;;;10.03;;
19006;SDS011;9636;47.382;8.480;2022-12-18T02:18:35;14.20;;;10.20;;
19006;SDS011;9636;47.382;8.480;2022-12-18T02:21:04;15.27;;;10.47;;
19006;SDS011;9636;47.382;8.480;2022-12-18T02:23:38;15.50;;;10.47;;
19006;SDS011;9636;47.382;8.480;2022-12-18T02:26:13;16.77;;;10.60;;
19006;SDS011;9636;47.382;8.480;2022-12-18T02:28:42;14.70;;;10.03;;
19006;SDS011;9636;47.382;8.480;2022-12-18T02:31:11;13.67;;;9.60;;
19006;SDS011;9636;47.382;8.480;2022-12-18T02:33:40;15.93;;;9.70;;
19006;SDS011;9636;47.382;8.480;2022-12-18T02:36:09;14.73;;;10.10;;
19006;SDS011;9636;47.382;8.480;2022-12-18T02:38:37;15.70;;;10.23;;
19006;SDS011;9636;47.382;8.480;2022-12-18T02:41:05;13.53;;;9.37;;
19006;SDS011;9636;47.382;8.480;2022-12-18T02:43:34;15.07;;;9.80;;
19006;SDS011;9636;47.382;8.480;2022-12-18T02:48:43;14.67;;;10.20;;
19006;SDS011;9636;47.382;8.480;2022-12-18T02:51:11;15.37;;;9.80;;
19006;SDS011;9636;47.382;8.480;2022-12-18T02:53:43;14.70;;;10.07;;
19006;SDS011;9636;47.382;8.480;2022-12-18T02:56:12;16.97;;;10.10;;
19006;SDS011;9636;47.382;8.480;2022-12-18T02:58:45;12.87;;;9.60;;
19006;SDS011;9636;47.382;8.480;2022-12-18T03:01:15;15.37;;;9.93;;
19006;SDS011;9636;47.382;8.480;2022-12-18T03:03:44;14.93;;;9.73;;
19006;SDS011;9636;47.382;8.480;2022-12-18T03:06:14;17.37;;;10.60;;
19006;SDS011;9636;47.382;8.480;2022-12-18T03:08:46;15.17;;;10.40;;
19006;SDS011;9636;47.382;8.480;2022-12-18T03:11:14;15.60;;;10.27;;
19006;SDS011;9636;47.382;8.480;2022-12-18T03:14:02;15.30;;;9.70;;
19006;SDS011;9636;47.382;8.480;2022-12-18T03:16:30;13.43;;;9.73;;
19006;SDS011;9636;47.382;8.480;2022-12-18T03:18:58;14.60;;;9.80;;
19006;SDS011;9636;47.382;8.480;2022-12-18T03:21:28;15.90;;;10.20;;
19006;SDS011;9636;47.382;8.480;2022-12-18T03:23:56;15.50;;;10.10;;
19006;SDS011;9636;47.382;8.480;2022-12-18T03:26:24;15.00;;;10.13;;
19006;SDS011;9636;47.382;8.480;2022-12-18T03:28:53;13.17;;;9.43;;
19006;SDS011;9636;47.382;8.480;2022-12-18T03:31:22;16.00;;;10.33;;
19006;SDS011;9636;47.382;8.480;2022-12-18T03:33:51;14.90;;;9.47;;
19006;SDS011;9636;47.382;8.480;2022-12-18T03:36:19;15.43;;;10.07;;
19006;SDS011;9636;47.382;8.480;2022-12-18T03:38:46;14.07;;;9.53;;
19006;SDS011;9636;47.382;8.480;2022-12-18T03:41:16;15.40;;;10.27;;
19006;SDS011;9636;47.382;8.480;2022-12-18T03:43:47;14.73;;;10.23;;
19006;SDS011;9636;47.382;8.480;2022-12-18T03:46:17;17.07;;;10.57;;
19006;SDS011;9636;47.382;8.480;2022-12-18T03:48:51;16.00;;;10.50;;
19006;SDS011;9636;47.382;8.480;2022-12-18T03:51:22;14.13;;;9.77;;
19006;SDS011;9636;47.382;8.480;2022-12-18T03:53:53;14.33;;;9.83;;
19006;SDS011;9636;47.382;8.480;2022-12-18T03:56:21;14.57;;;10.10;;
19006;SDS011;9636;47.382;8.480;2022-12-18T03:58:50;16.10;;;9.90;;
19006;SDS011;9636;47.382;8.480;2022-12-18T04:01:21;14.00;;;10.07;;
19006;SDS011;9636;47.382;8.480;2022-12-18T04:03:50;14.77;;;10.20;;
19006;SDS011;9636;47.382;8.480;2022-12-18T04:06:18;15.30;;;9.97;;
19006;SDS011;9636;47.382;8.480;2022-12-18T04:08:45;17.57;;;10.87;;
19006;SDS011;9636;47.382;8.480;2022-12-18T04:11:12;15.70;;;10.60;;
19006;SDS011;9636;47.382;8.480;2022-12-18T04:13:39;17.13;;;10.93;;
19006;SDS011;9636;47.382;8.480;2022-12-18T04:16:09;14.93;;;10.13;;
19006;SDS011;9636;47.382;8.480;2022-12-18T04:18:36;15.17;;;10.20;;
19006;SDS011;9636;47.382;8.480;2022-12-18T04:21:05;14.80;;;10.23;;
19006;SDS011;9636;47.382;8.480;2022-12-18T04:23:32;16.63;;;10.53;;
19006;SDS011;9636;47.382;8.480;2022-12-18T04:25:59;14.90;;;10.23;;
19006;SDS011;9636;47.382;8.480;2022-12-18T04:28:26;16.40;;;10.60;;
19006;SDS011;9636;47.382;8.480;2022-12-18T04:30:53;14.87;;;10.47;;
19006;SDS011;9636;47.382;8.480;2022-12-18T04:33:20;14.70;;;9.77;;
19006;SDS011;9636;47.382;8.480;2022-12-18T04:35:47;16.80;;;10.47;;
19006;SDS011;9636;47.382;8.480;2022-12-18T04:38:16;16.97;;;10.87;;
19006;SDS011;9636;47.382;8.480;2022-12-18T04:40:43;15.70;;;10.07;;
19006;SDS011;9636;47.382;8.480;2022-12-18T04:43:10;16.90;;;10.40;;
19006;SDS011;9636;47.382;8.480;2022-12-18T04:45:37;15.53;;;10.20;;
19006;SDS011;9636;47.382;8.480;2022-12-18T04:48:05;17.80;;;10.90;;
19006;SDS011;9636;47.382;8.480;2022-12-18T04:50:32;14.73;;;10.03;;
19006;SDS011;9636;47.382;8.480;2022-12-18T04:52:59;15.70;;;10.63;;
19006;SDS011;9636;47.382;8.480;2022-12-18T04:55:27;16.57;;;9.90;;
19006;SDS011;9636;47.382;8.480;2022-12-18T04:57:55;17.60;;;10.40;;
19006;SDS011;9636;47.382;8.480;2022-12-18T05:00:22;15.40;;;10.00;;
19006;SDS011;9636;47.382;8.480;2022-12-18T05:02:49;15.33;;;10.07;;
19006;SDS011;9636;47.382;8.480;2022-12-18T05:05:16;15.83;;;9.87;;
19006;SDS011;9636;47.382;8.480;2022-12-18T05:07:43;14.77;;;9.60;;
19006;SDS011;9636;47.382;8.480;2022-12-18T05:10:10;14.30;;;10.20;;
19006;SDS011;9636;47.382;8.480;2022-12-18T05:12:39;13.70;;;9.87;;
19006;SDS011;9636;47.382;8.480;2022-12-18T05:15:20;14.50;;;10.03;;
19006;SDS011;9636;47.382;8.480;2022-12-18T05:17:47;13.73;;;9.53;;
19006;SDS011;9636;47.382;8.480;2022-12-18T05:20:14;14.03;;;9.37;;
19006;SDS011;9636;47.382;8.480;2022-12-18T05:22:43;13.87;;;9.37;;
19006;SDS011;9636;47.382;8.480;2022-12-18T05:25:10;12.90;;;10.00;;
19006;SDS011;9636;47.382;8.480;2022-12-18T05:27:38;13.43;;;9.50;;
19006;SDS011;9636;47.382;8.480;2022-12-18T05:30:06;15.17;;;10.00;;
19006;SDS011;9636;47.382;8.480;2022-12-18T05:32:33;13.90;;;9.37;;
19006;SDS011;9636;47.382;8.480;2022-12-18T05:35:00;14.03;;;9.90;;
19006;SDS011;9636;47.382;8.480;2022-12-18T05:37:28;14.30;;;10.07;;
19006;SDS011;9636;47.382;8.480;2022-12-18T05:39:55;13.00;;;9.70;;
19006;SDS011;9636;47.382;8.480;2022-12-18T05:42:22;12.90;;;9.07;;
19006;SDS011;9636;47.382;8.480;2022-12-18T05:44:50;13.17;;;9.10;;
19006;SDS011;9636;47.382;8.480;2022-12-18T05:47:17;12.87;;;9.17;;
19006;SDS011;9636;47.382;8.480;2022-12-18T05:49:47;12.90;;;9.07;;
19006;SDS011;9636;47.382;8.480;2022-12-18T05:52:15;12.67;;;8.63;;
19006;SDS011;9636;47.382;8.480;2022-12-18T05:54:42;13.03;;;9.20;;
19006;SDS011;9636;47.382;8.480;2022-12-18T05:57:09;12.77;;;8.57;;
19006;SDS011;9636;47.382;8.480;2022-12-18T05:59:36;13.77;;;8.80;;
19006;SDS011;9636;47.382;8.480;2022-12-18T06:02:05;13.13;;;8.90;;
19006;SDS011;9636;47.382;8.480;2022-12-18T06:04:32;12.93;;;8.93;;
19006;SDS011;9636;47.382;8.480;2022-12-18T06:06:59;11.93;;;8.70;;
19006;SDS011;9636;47.382;8.480;2022-12-18T06:09:26;12.37;;;9.03;;
19006;SDS011;9636;47.382;8.480;2022-12-18T06:11:53;11.23;;;8.33;;
19006;SDS011;9636;47.382;8.480;2022-12-18T06:14:20;12.10;;;8.73;;
19006;SDS011;9636;47.382;8.480;2022-12-18T06:16:49;12.00;;;8.30;;
19006;SDS011;9636;47.382;8.480;2022-12-18T06:19:18;11.67;;;8.27;;
19006;SDS011;9636;47.382;8.480;2022-12-18T06:21:46;10.73;;;7.63;;
19006;SDS011;9636;47.382;8.480;2022-12-18T06:24:14;11.07;;;8.40;;
19006;SDS011;9636;47.382;8.480;2022-12-18T06:26:41;12.40;;;8.77;;
19006;SDS011;9636;47.382;8.480;2022-12-18T06:29:08;11.77;;;8.37;;
19006;SDS011;9636;47.382;8.480;2022-12-18T06:31:35;10.60;;;7.77;;
19006;SDS011;9636;47.382;8.480;2022-12-18T06:34:03;10.93;;;7.90;;
19006;SDS011;9636;47.382;8.480;2022-12-18T06:36:31;10.63;;;7.90;;
19006;SDS011;9636;47.382;8.480;2022-12-18T06:38:58;11.87;;;8.43;;
19006;SDS011;9636;47.382;8.480;2022-12-18T06:41:26;10.90;;;7.63;;
19006;SDS011;9636;47.382;8.480;2022-12-18T06:43:53;10.70;;;7.73;;
19006;SDS011;9636;47.382;8.480;2022-12-18T06:46:20;10.87;;;7.93;;
19006;SDS011;9636;47.382;8.480;2022-12-18T06:48:47;11.33;;;8.27;;
19006;SDS011;9636;47.382;8.480;2022-12-18T06:51:18;11.23;;;7.40;;
19006;SDS011;9636;47.382;8.480;2022-12-18T06:53:47;11.17;;;8.00;;
19006;SDS011;9636;47.382;8.480;2022-12-18T06:56:14;10.40;;;7.80;;
19006;SDS011;9636;47.382;8.480;2022-12-18T06:58:41;9.57;;;7.10;;
19006;SDS011;9636;47.382;8.480;2022-12-18T07:01:09;10.37;;;7.13;;
19006;SDS011;9636;47.382;8.480;2022-12-18T07:03:36;10.30;;;8.00;;
19006;SDS011;9636;47.382;8.480;2022-12-18T07:06:04;10.10;;;7.50;;
19006;SDS011;9636;47.382;8.480;2022-12-18T07:08:31;12.53;;;8.10;;
19006;SDS011;9636;47.382;8.480;2022-12-18T07:11:02;8.77;;;6.87;;
19006;SDS011;9636;47.382;8.480;2022-12-18T07:13:30;9.13;;;7.20;;
19006;SDS011;9636;47.382;8.480;2022-12-18T07:16:02;10.17;;;7.63;;
19006;SDS011;9636;47.382;8.480;2022-12-18T07:18:29;9.10;;;7.27;;
19006;SDS011;9636;47.382;8.480;2022-12-18T07:20:57;9.43;;;7.17;;
19006;SDS011;9636;47.382;8.480;2022-12-18T07:23:24;11.33;;;7.97;;
19006;SDS011;9636;47.382;8.480;2022-12-18T07:25:51;10.20;;;7.17;;
19006;SDS011;9636;47.382;8.480;2022-12-18T07:28:19;9.07;;;7.27;;
19006;SDS011;9636;47.382;8.480;2022-12-18T07:30:47;10.10;;;7.20;;
19006;SDS011;9636;47.382;8.480;2022-12-18T07:33:14;11.10;;;7.90;;
19006;SDS011;9636;47.382;8.480;2022-12-18T07:35:41;9.23;;;6.83;;
19006;SDS011;9636;47.382;8.480;2022-12-18T07:38:08;8.97;;;6.77;;
19006;SDS011;9636;47.382;8.480;2022-12-18T07:40:35;10.00;;;6.87;;
19006;SDS011;9636;47.382;8.480;2022-12-18T07:43:02;8.87;;;6.30;;
19006;SDS011;9636;47.382;8.480;2022-12-18T07:45:31;9.83;;;7.03;;
19006;SDS011;9636;47.382;8.480;2022-12-18T07:47:58;9.50;;;7.30;;
19006;SDS011;9636;47.382;8.480;2022-12-18T07:50:25;9.57;;;6.80;;
19006;SDS011;9636;47.382;8.480;2022-12-18T07:52:52;9.03;;;6.90;;
19006;SDS011;9636;47.382;8.480;2022-12-18T07:55:19;9.23;;;7.17;;
19006;SDS011;9636;47.382;8.480;2022-12-18T07:57:46;9.03;;;6.87;;
19006;SDS011;9636;47.382;8.480;2022-12-18T08:00:14;8.83;;;7.10;;
19006;SDS011;9636;47.382;8.480;2022-12-18T08:02:42;9.20;;;6.70;;
19006;SDS011;9636;47.382;8.480;2022-12-18T08:05:09;9.97;;;6.80;;
19006;SDS011;9636;47.382;8.480;2022-12-18T08:07:36;8.97;;;6.70;;
19006;SDS011;9636;47.382;8.480;2022-12-18T08:10:04;9.83;;;7.37;;
19006;SDS011;9636;47.382;8.480;2022-12-18T08:12:31;9.60;;;6.90;;
19006;SDS011;9636;47.382;8.480;2022-12-18T08:14:58;9.37;;;6.67;;
19006;SDS011;9636;47.382;8.480;2022-12-18T08:17:25;8.60;;;6.23;;
19006;SDS011;9636;47.382;8.480;2022-12-18T08:19:54;8.63;;;6.60;;
19006;SDS011;9636;47.382;8.480;2022-12-18T08:22:21;8.00;;;6.33;;
19006;SDS011;9636;47.382;8.480;2022-12-18T08:24:48;8.20;;;6.43;;
19006;SDS011;9636;47.382;8.480;2022-12-18T08:27:15;9.33;;;6.57;;
19006;SDS011;9636;47.382;8.480;2022-12-18T08:29:42;9.10;;;6.43;;
19006;SDS011;9636;47.382;8.480;2022-12-18T08:32:09;8.20;;;6.13;;
19006;SDS011;9636;47.382;8.480;2022-12-18T08:34:37;7.63;;;5.90;;
19006;SDS011;9636;47.382;8.480;2022-12-18T08:37:05;7.77;;;5.90;;
19006;SDS011;9636;47.382;8.480;2022-12-18T08:39:32;69.27;;;23.23;;
19006;SDS011;9636;47.382;8.480;2022-12-18T08:42:00;72.03;;;27.20;;
19006;SDS011;9636;47.382;8.480;2022-12-18T08:44:44;63.80;;;23.37;;
19006;SDS011;9636;47.382;8.480;2022-12-18T08:47:11;61.20;;;22.77;;
19006;SDS011;9636;47.382;8.480;2022-12-18T08:49:38;60.50;;;22.97;;
19006;SDS011;9636;47.382;8.480;2022-12-18T08:52:07;57.67;;;22.73;;
19006;SDS011;9636;47.382;8.480;2022-12-18T08:54:34;55.77;;;22.60;;
19006;SDS011;9636;47.382;8.480;2022-12-18T08:57:01;60.90;;;24.50;;
19006;SDS011;9636;47.382;8.480;2022-12-18T08:59:28;50.00;;;18.47;;
19006;SDS011;9636;47.382;8.480;2022-12-18T09:01:55;46.60;;;19.50;;
19006;SDS011;9636;47.382;8.480;2022-12-18T09:04:23;45.77;;;19.47;;
19006;SDS011;9636;47.382;8.480;2022-12-18T09:06:50;49.30;;;19.73;;
19006;SDS011;9636;47.382;8.480;2022-12-18T09:09:25;42.57;;;18.33;;
19006;SDS011;9636;47.382;8.480;2022-12-18T09:11:53;48.30;;;18.97;;
19006;SDS011;9636;47.382;8.480;2022-12-18T09:14:20;41.33;;;17.70;;
19006;SDS011;9636;47.382;8.480;2022-12-18T09:16:47;45.57;;;18.40;;
19006;SDS011;9636;47.382;8.480;2022-12-18T09:19:14;41.07;;;17.77;;
19006;SDS011;9636;47.382;8.480;2022-12-18T09:21:41;36.67;;;17.63;;
19006;SDS011;9636;47.382;8.480;2022-12-18T09:24:08;44.10;;;17.23;;
19006;SDS011;9636;47.382;8.480;2022-12-18T09:26:39;38.70;;;18.40;;
19006;SDS011;9636;47.382;8.480;2022-12-18T09:29:07;39.90;;;16.77;;
19006;SDS011;9636;47.382;8.480;2022-12-18T09:31:34;42.53;;;17.70;;
19006;SDS011;9636;47.382;8.480;2022-12-18T09:34:01;36.53;;;16.97;;
19006;SDS011;9636;47.382;8.480;2022-12-18T09:36:28;35.93;;;17.20;;
19006;SDS011;9636;47.382;8.480;2022-12-18T09:38:55;45.50;;;17.67;;
19006;SDS011;9636;47.382;8.480;2022-12-18T09:41:27;36.17;;;16.57;;
19006;SDS011;9636;47.382;8.480;2022-12-18T09:44:00;36.37;;;16.40;;
19006;SDS011;9636;47.382;8.480;2022-12-18T09:46:28;30.63;;;15.50;;
19006;SDS011;9636;47.382;8.480;2022-12-18T09:48:58;33.37;;;16.20;;
19006;SDS011;9636;47.382;8.480;2022-12-18T09:51:27;30.60;;;15.90;;
19006;SDS011;9636;47.382;8.480;2022-12-18T09:53:56;31.97;;;15.07;;
19006;SDS011;9636;47.382;8.480;2022-12-18T09:56:25;36.53;;;16.20;;
19006;SDS011;9636;47.382;8.480;2022-12-18T09:58:55;33.23;;;15.63;;
19006;SDS011;9636;47.382;8.480;2022-12-18T10:01:26;33.30;;;15.50;;
19006;SDS011;9636;47.382;8.480;2022-12-18T10:03:53;27.23;;;14.70;;
19006;SDS011;9636;47.382;8.480;2022-12-18T10:06:21;32.37;;;15.20;;
19006;SDS011;9636;47.382;8.480;2022-12-18T10:08:51;31.63;;;14.17;;
19006;SDS011;9636;47.382;8.480;2022-12-18T10:11:32;31.87;;;15.13;;
19006;SDS011;9636;47.382;8.480;2022-12-18T10:14:05;34.23;;;14.43;;
19006;SDS011;9636;47.382;8.480;2022-12-18T10:16:35;33.33;;;14.97;;
19006;SDS011;9636;47.382;8.480;2022-12-18T10:19:10;29.60;;;14.13;;
19006;SDS011;9636;47.382;8.480;2022-12-18T10:21:42;30.87;;;14.10;;
19006;SDS011;9636;47.382;8.480;2022-12-18T10:24:14;31.03;;;13.93;;
19006;SDS011;9636;47.382;8.480;2022-12-18T10:26:45;29.57;;;14.37;;
19006;SDS011;9636;47.382;8.480;2022-12-18T10:29:14;31.13;;;14.80;;
19006;SDS011;9636;47.382;8.480;2022-12-18T10:31:43;29.97;;;13.63;;
19006;SDS011;9636;47.382;8.480;2022-12-18T10:34:10;27.57;;;13.33;;
19006;SDS011;9636;47.382;8.480;2022-12-18T10:36:37;31.60;;;14.20;;
19006;SDS011;9636;47.382;8.480;2022-12-18T10:39:14;31.43;;;14.47;;
19006;SDS011;9636;47.382;8.480;2022-12-18T10:41:41;27.03;;;14.30;;
19006;SDS011;9636;47.382;8.480;2022-12-18T10:44:14;29.37;;;14.10;;
19006;SDS011;9636;47.382;8.480;2022-12-18T10:46:44;28.73;;;14.07;;
19006;SDS011;9636;47.382;8.480;2022-12-18T10:49:19;30.00;;;13.80;;
19006;SDS011;9636;47.382;8.480;2022-12-18T10:51:46;27.10;;;13.20;;
19006;SDS011;9636;47.382;8.480;2022-12-18T10:54:14;24.57;;;13.00;;
19006;SDS011;9636;47.382;8.480;2022-12-18T10:56:42;25.70;;;13.53;;
19006;SDS011;9636;47.382;8.480;2022-12-18T10:59:10;24.17;;;12.50;;
19006;SDS011;9636;47.382;8.480;2022-12-18T11:01:51;25.80;;;13.10;;
19006;SDS011;9636;47.382;8.480;2022-12-18T11:04:20;26.53;;;13.73;;
19006;SDS011;9636;47.382;8.480;2022-12-18T11:06:55;26.07;;;13.23;;
19006;SDS011;9636;47.382;8.480;2022-12-18T11:09:23;23.60;;;12.83;;
19006;SDS011;9636;47.382;8.480;2022-12-18T11:11:51;21.63;;;12.47;;
19006;SDS011;9636;47.382;8.480;2022-12-18T11:14:20;25.47;;;13.70;;
19006;SDS011;9636;47.382;8.480;2022-12-18T11:16:48;25.50;;;13.40;;
19006;SDS011;9636;47.382;8.480;2022-12-18T11:19:23;25.10;;;12.87;;
19006;SDS011;9636;47.382;8.480;2022-12-18T11:21:52;21.83;;;12.07;;
19006;SDS011;9636;47.382;8.480;2022-12-18T11:24:20;22.93;;;12.73;;
19006;SDS011;9636;47.382;8.480;2022-12-18T11:26:47;23.90;;;12.27;;
19006;SDS011;9636;47.382;8.480;2022-12-18T11:29:16;23.87;;;12.50;;
19006;SDS011;9636;47.382;8.480;2022-12-18T11:31:43;21.93;;;12.47;;
19006;SDS011;9636;47.382;8.480;2022-12-18T11:34:11;23.43;;;12.93;;
19006;SDS011;9636;47.382;8.480;2022-12-18T11:36:42;21.00;;;12.43;;
19006;SDS011;9636;47.382;8.480;2022-12-18T11:39:12;21.47;;;12.30;;
19006;SDS011;9636;47.382;8.480;2022-12-18T11:41:41;20.87;;;11.87;;
19006;SDS011;9636;47.382;8.480;2022-12-18T11:44:28;22.50;;;12.40;;
19006;SDS011;9636;47.382;8.480;2022-12-18T11:46:58;21.47;;;12.37;;
19006;SDS011;9636;47.382;8.480;2022-12-18T11:49:26;20.67;;;12.03;;
19006;SDS011;9636;47.382;8.480;2022-12-18T11:51:59;22.97;;;12.40;;
19006;SDS011;9636;47.382;8.480;2022-12-18T11:54:27;18.80;;;10.77;;
19006;SDS011;9636;47.382;8.480;2022-12-18T11:56:55;21.10;;;12.03;;
19006;SDS011;9636;47.382;8.480;2022-12-18T11:59:26;18.10;;;9.70;;
19006;SDS011;9636;47.382;8.480;2022-12-18T12:02:00;20.07;;;10.03;;
19006;SDS011;9636;47.382;8.480;2022-12-18T12:04:36;18.03;;;9.30;;
19006;SDS011;9636;47.382;8.480;2022-12-18T12:07:11;20.40;;;9.97;;
19006;SDS011;9636;47.382;8.480;2022-12-18T12:09:40;18.73;;;9.47;;
19006;SDS011;9636;47.382;8.480;2022-12-18T12:12:15;15.10;;;9.70;;
19006;SDS011;9636;47.382;8.480;2022-12-18T12:14:46;17.07;;;9.77;;
19006;SDS011;9636;47.382;8.480;2022-12-18T12:17:19;15.23;;;9.73;;
19006;SDS011;9636;47.382;8.480;2022-12-18T12:19:48;16.03;;;8.97;;
19006;SDS011;9636;47.382;8.480;2022-12-18T12:22:23;14.00;;;9.00;;
19006;SDS011;9636;47.382;8.480;2022-12-18T12:24:55;14.63;;;9.07;;
19006;SDS011;9636;47.382;8.480;2022-12-18T12:27:25;15.23;;;8.80;;
19006;SDS011;9636;47.382;8.480;2022-12-18T12:29:57;17.43;;;9.63;;
19006;SDS011;9636;47.382;8.480;2022-12-18T12:32:29;14.43;;;8.80;;
19006;SDS011;9636;47.382;8.480;2022-12-18T12:35:06;15.23;;;9.13;;
19006;SDS011;9636;47.382;8.480;2022-12-18T12:37:38;15.50;;;9.13;;
19006;SDS011;9636;47.382;8.480;2022-12-18T12:40:11;16.17;;;9.30;;
19006;SDS011;9636;47.382;8.480;2022-12-18T12:42:40;15.90;;;9.60;;
19006;SDS011;9636;47.382;8.480;2022-12-18T12:45:36;15.53;;;9.47;;
19006;SDS011;9636;47.382;8.480;2022-12-18T12:48:04;14.20;;;8.40;;
19006;SDS011;9636;47.382;8.480;2022-12-18T12:50:34;13.70;;;8.43;;
19006;SDS011;9636;47.382;8.480;2022-12-18T12:53:05;13.20;;;8.27;;
19006;SDS011;9636;47.382;8.480;2022-12-18T12:55:34;14.17;;;8.80;;
19006;SDS011;9636;47.382;8.480;2022-12-18T12:58:04;14.93;;;8.60;;
19006;SDS011;9636;47.382;8.480;2022-12-18T13:00:35;14.43;;;8.70;;
19006;SDS011;9636;47.382;8.480;2022-12-18T13:03:06;14.37;;;8.70;;
19006;SDS011;9636;47.382;8.480;2022-12-18T13:05:38;13.27;;;8.20;;
19006;SDS011;9636;47.382;8.480;2022-12-18T13:08:09;13.30;;;8.43;;
19006;SDS011;9636;47.382;8.480;2022-12-18T13:10:37;13.27;;;8.47;;
19006;SDS011;9636;47.382;8.480;2022-12-18T13:13:05;12.53;;;8.30;;
19006;SDS011;9636;47.382;8.480;2022-12-18T13:15:38;13.43;;;8.57;;
19006;SDS011;9636;47.382;8.480;2022-12-18T13:18:16;13.07;;;8.10;;
19006;SDS011;9636;47.382;8.480;2022-12-18T13:20:45;15.23;;;7.83;;
19006;SDS011;9636;47.382;8.480;2022-12-18T13:23:28;12.67;;;8.13;;
19006;SDS011;9636;47.382;8.480;2022-12-18T13:25:55;14.20;;;8.23;;
19006;SDS011;9636;47.382;8.480;2022-12-18T13:28:23;13.20;;;8.07;;
19006;SDS011;9636;47.382;8.480;2022-12-18T13:30:54;14.03;;;8.33;;
19006;SDS011;9636;47.382;8.480;2022-12-18T13:33:38;11.47;;;8.03;;
19006;SDS011;9636;47.382;8.480;2022-12-18T13:36:10;12.33;;;7.80;;
19006;SDS011;9636;47.382;8.480;2022-12-18T13:38:40;12.57;;;8.33;;
19006;SDS011;9636;47.382;8.480;2022-12-18T13:41:22;13.10;;;8.00;;
19006;SDS011;9636;47.382;8.480;2022-12-18T13:43:49;13.70;;;8.60;;
19006;SDS011;9636;47.382;8.480;2022-12-18T13:46:18;11.80;;;7.37;;
19006;SDS011;9636;47.382;8.480;2022-12-18T13:48:50;12.97;;;8.00;;
19006;SDS011;9636;47.382;8.480;2022-12-18T13:53:54;11.77;;;7.60;;
19006;SDS011;9636;47.382;8.480;2022-12-18T13:56:23;13.10;;;8.40;;
19006;SDS011;9636;47.382;8.480;2022-12-18T13:59:03;11.40;;;7.17;;
19006;SDS011;9636;47.382;8.480;2022-12-18T14:01:30;10.97;;;7.87;;
19006;SDS011;9636;47.382;8.480;2022-12-18T14:04:08;9.87;;;6.70;;
19006;SDS011;9636;47.382;8.480;2022-12-18T14:06:36;11.30;;;7.63;;
19006;SDS011;9636;47.382;8.480;2022-12-18T14:09:05;12.23;;;7.47;;
19006;SDS011;9636;47.382;8.480;2022-12-18T14:11:33;10.47;;;7.47;;
19006;SDS011;9636;47.382;8.480;2022-12-18T14:14:00;12.50;;;7.53;;
19006;SDS011;9636;47.382;8.480;2022-12-18T14:16:28;11.73;;;7.10;;
19006;SDS011;9636;47.382;8.480;2022-12-18T14:18:55;12.17;;;7.60;;
19006;SDS011;9636;47.382;8.480;2022-12-18T14:21:25;13.00;;;7.60;;
19006;SDS011;9636;47.382;8.480;2022-12-18T14:24:12;15.13;;;7.77;;
19006;SDS011;9636;47.382;8.480;2022-12-18T14:26:40;10.40;;;7.27;;
19006;SDS011;9636;47.382;8.480;2022-12-18T14:29:24;11.80;;;7.73;;
19006;SDS011;9636;47.382;8.480;2022-12-18T14:32:07;11.53;;;7.23;;
19006;SDS011;9636;47.382;8.480;2022-12-18T14:34:35;12.20;;;7.53;;
19006;SDS011;9636;47.382;8.480;2022-12-18T14:37:03;11.57;;;7.17;;
19006;SDS011;9636;47.382;8.480;2022-12-18T14:39:31;11.77;;;7.60;;
19006;SDS011;9636;47.382;8.480;2022-12-18T14:41:58;12.00;;;7.60;;
19006;SDS011;9636;47.382;8.480;2022-12-18T14:44:26;11.80;;;7.70;;
19006;SDS011;9636;47.382;8.480;2022-12-18T14:46:53;10.10;;;7.17;;
19006;SDS011;9636;47.382;8.480;2022-12-18T14:49:21;11.37;;;7.90;;
19006;SDS011;9636;47.382;8.480;2022-12-18T14:51:49;11.03;;;7.67;;
19006;SDS011;9636;47.382;8.480;2022-12-18T14:54:18;12.30;;;7.67;;
19006;SDS011;9636;47.382;8.480;2022-12-18T14:56:47;13.03;;;7.70;;
19006;SDS011;9636;47.382;8.480;2022-12-18T14:59:15;10.70;;;7.40;;
19006;SDS011;9636;47.382;8.480;2022-12-18T15:01:45;11.20;;;7.43;;